Atkins, South Carolina
Current Conditions -  °F | °C
As of 9:35 PM on Sunday 21 Dec 2014 (Local Time) from KSMS Reporting Station
Light Rain Light Rain  
Wind Chill: 50°   Ceiling: 2500
Heat Index: 50°   Visibility: 9mi
Dew Point: 43°   Wind: 7mph
Humidity: 76%   Direction: 50°NE
Pressure: 30.16"   Gusts: NA
Location:  34.0395°N, 80.1095°W
Report Text: KSMS 220235Z AUTO 05006KT 9SM -RA OVC025 10/06 A3016 RMK AO2
Loading
Personal Weather Stations






























Interactive Weather Map New forecast layout! Learn more

10-Day Weather Forecast

Advertisements
Track Severe Weather on mobile